Time;durP1;ratioP1;P1;durP2;ratioP2;P2;SDS_P1;SDS_P2;PMS_P1;PMS_P2;Temp;Humidity;BMP_temperature;BMP_pressure;BME280_temperature;BME280_humidity;BME280_pressure;Samples;Min_cycle;Max_cycle;Signal;HPM_P1;HPM_P2
2022/07/19 02:47:02;;;;;;;3.83;1.20;;;19.40;69.20;;;;;;5515869;23;88919;-71
2022/07/19 02:49:27;;;;;;;6.75;1.85;;;19.40;69.10;;;;;;4900443;28;88011;-72
2022/07/19 02:51:53;;;;;;;3.33;1.38;;;19.40;69.40;;;;;;4901484;28;87003;-74
2022/07/19 02:54:19;;;;;;;5.45;1.00;;;19.30;69.30;;;;;;4899916;28;88108;-69
2022/07/19 02:56:44;;;;;;;5.35;1.30;;;19.50;68.60;;;;;;4894800;28;87625;-74
2022/07/19 02:59:10;;;;;;;3.67;1.10;;;19.40;69.00;;;;;;4898669;28;86740;-71
2022/07/19 03:01:36;;;;;;;3.15;0.90;;;19.30;69.30;;;;;;4899997;28;87033;-70
2022/07/19 03:04:02;;;;;;;6.85;1.00;;;19.30;69.50;;;;;;4901190;28;88139;-70
2022/07/19 03:06:28;;;;;;;4.13;1.00;;;19.30;69.70;;;;;;4899879;28;86855;-71
2022/07/19 03:08:54;;;;;;;2.90;1.33;;;19.30;69.60;;;;;;4901711;28;86921;-70
2022/07/19 03:11:20;;;;;;;4.22;1.25;;;19.10;70.70;;;;;;4899091;28;87211;-71
2022/07/19 03:13:45;;;;;;;3.92;1.20;;;18.90;71.70;;;;;;4900618;28;88784;-70
2022/07/19 03:16:11;;;;;;;6.30;1.35;;;18.80;72.10;;;;;;4900485;28;88202;-71
2022/07/19 03:18:37;;;;;;;3.63;1.02;;;18.70;72.40;;;;;;4901044;28;86906;-71
2022/07/19 03:21:03;;;;;;;3.15;1.27;;;18.60;72.90;;;;;;4901115;28;86997;-69
2022/07/19 03:23:32;;;;;;;4.40;1.38;;;18.60;73.60;;;;;;4896870;28;88485;-72
2022/07/19 03:25:57;;;;;;;5.35;1.23;;;18.50;73.70;;;;;;4889538;28;87395;-71
2022/07/19 03:28:23;;;;;;;3.30;1.52;;;18.50;73.70;;;;;;4882032;28;86906;-70
2022/07/19 03:30:49;;;;;;;3.17;1.42;;;18.50;73.60;;;;;;4881905;28;86214;-73
2022/07/19 03:33:15;;;;;;;4.10;1.17;;;18.50;73.50;;;;;;4895421;28;88327;-74
2022/07/19 03:35:45;;;;;;;3.97;1.27;;;18.50;73.30;;;;;;4899513;28;86940;-70
2022/07/19 03:38:12;;;;;;;6.13;1.38;;;18.50;73.40;;;;;;4899891;28;87916;-71
2022/07/19 03:40:38;;;;;;;5.25;1.42;;;18.40;74.10;;;;;;4900447;28;86889;-71
2022/07/19 03:43:05;;;;;;;3.35;1.35;;;18.40;74.20;;;;;;4899214;28;87716;-72
2022/07/19 03:45:30;;;;;;;3.15;1.35;;;18.40;74.20;;;;;;4900149;28;87498;-72
2022/07/19 03:47:56;;;;;;;4.72;1.20;;;18.30;74.90;;;;;;4895434;28;87352;-70
2022/07/19 03:50:22;;;;;;;4.72;1.33;;;18.30;75.20;;;;;;4881528;28;86851;-70
2022/07/19 03:52:48;;;;;;;4.45;1.40;;;18.30;75.40;;;;;;4883496;28;87078;-72
2022/07/19 03:55:13;;;;;;;5.32;1.60;;;18.30;75.20;;;;;;4864041;28;88205;-72
2022/07/19 03:57:39;;;;;;;5.03;1.40;;;18.30;75.20;;;;;;4874162;28;86945;-71
2022/07/19 04:00:06;;;;;;;2.45;1.10;;;18.40;75.10;;;;;;4894936;28;87427;-70
2022/07/19 04:02:32;;;;;;;3.55;1.10;;;18.50;73.90;;;;;;4879208;28;88086;-72
2022/07/19 04:04:57;;;;;;;5.25;1.42;;;18.60;73.50;;;;;;4897784;28;87110;-73
2022/07/19 04:07:23;;;;;;;4.57;1.30;;;18.70;73.40;;;;;;4887592;28;86899;-70
2022/07/19 04:09:49;;;;;;;4.15;1.20;;;18.70;73.00;;;;;;4880667;28;86853;-71
2022/07/19 04:12:15;;;;;;;7.72;1.45;;;18.70;72.80;;;;;;4898336;28;88065;-70
2022/07/19 04:14:40;;;;;;;8.32;1.63;;;19.00;72.50;;;;;;4881579;28;87067;-72
2022/07/19 04:17:07;;;;;;;3.97;1.63;;;19.50;70.50;;;;;;4879448;28;86939;-70
2022/07/19 04:19:33;;;;;;;3.90;1.55;;;19.80;68.90;;;;;;4886251;28;86768;-71
2022/07/19 04:21:58;;;;;;;4.70;1.83;;;20.20;68.70;;;;;;4880909;28;87287;-72
2022/07/19 04:24:24;;;;;;;5.40;1.65;;;20.50;67.00;;;;;;4879033;28;87380;-70
2022/07/19 04:26:50;;;;;;;9.35;1.73;;;20.80;65.40;;;;;;4881290;28;87498;-72
2022/07/19 04:29:15;;;;;;;6.00;1.75;;;21.20;64.00;;;;;;4881721;28;87267;-73
2022/07/19 04:31:41;;;;;;;3.75;1.63;;;21.40;63.70;;;;;;4883975;28;86888;-70
2022/07/19 04:34:07;;;;;;;3.72;1.83;;;21.70;63.00;;;;;;4881837;28;87146;-71
2022/07/19 04:36:33;;;;;;;5.22;1.48;;;22.00;63.60;;;;;;4896775;28;86642;-72
2022/07/19 04:38:58;;;;;;;5.15;1.70;;;22.40;61.30;;;;;;4892415;28;87303;-73
2022/07/19 04:41:24;;;;;;;5.75;1.52;;;22.60;60.30;;;;;;4900968;28;87362;-70
2022/07/19 04:43:50;;;;;;;8.15;1.75;;;23.20;59.70;;;;;;4900930;28;87379;-70
2022/07/19 04:46:15;;;;;;;3.78;1.70;;;23.60;57.90;;;;;;4883105;28;87386;-72
2022/07/19 04:48:41;;;;;;;2.75;1.30;;;23.70;58.80;;;;;;4881835;28;87076;-70
2022/07/19 04:51:07;;;;;;;3.67;1.70;;;24.10;56.70;;;;;;4875963;28;87670;-71
2022/07/19 04:53:33;;;;;;;3.45;1.35;;;23.50;58.60;;;;;;4881747;28;87702;-70
2022/07/19 04:55:58;;;;;;;5.10;1.58;;;23.90;59.10;;;;;;4881924;28;87664;-70
2022/07/19 04:58:24;;;;;;;8.23;1.88;;;24.20;57.10;;;;;;4882418;28;87542;-72
2022/07/19 05:00:50;;;;;;;7.93;1.83;;;24.10;56.80;;;;;;4881932;28;88005;-71
2022/07/19 05:03:16;;;;;;;5.20;1.77;;;24.40;56.90;;;;;;4881417;28;87122;-70
2022/07/19 05:05:42;;;;;;;5.63;1.48;;;24.50;56.30;;;;;;4882348;28;86988;-70
2022/07/19 05:08:07;;;;;;;5.63;1.23;;;24.40;57.30;;;;;;4883123;28;86492;-71
2022/07/19 05:10:33;;;;;;;6.70;1.60;;;26.10;56.30;;;;;;4882389;28;87397;-73
2022/07/19 05:12:59;;;;;;;4.20;2.17;;;27.20;50.80;;;;;;4881320;28;87324;-71
2022/07/19 05:15:24;;;;;;;7.93;1.92;;;28.00;52.10;;;;;;4880920;28;87972;-73
2022/07/19 05:17:50;;;;;;;4.30;1.60;;;29.50;48.20;;;;;;4881530;28;87116;-71
2022/07/19 05:20:16;;;;;;;3.22;1.20;;;30.40;47.40;;;;;;4882288;28;86887;-70
2022/07/19 05:22:43;;;;;;;5.22;2.05;;;31.30;45.80;;;;;;4881299;28;86951;-71
2022/07/19 05:25:10;;;;;;;5.95;2.10;;;30.90;45.50;;;;;;4882251;28;86992;-72
2022/07/19 05:27:36;;;;;;;7.85;2.63;;;31.00;45.40;;;;;;4881066;28;87101;-73
2022/07/19 05:30:03;;;;;;;13.10;2.45;;;31.60;44.60;;;;;;4881855;28;87449;-71
2022/07/19 05:32:29;;;;;;;10.18;2.45;;;32.60;44.30;;;;;;4882271;28;88562;-73
2022/07/19 05:34:54;;;;;;;8.82;2.47;;;33.10;41.90;;;;;;4882230;28;86955;-73
2022/07/19 05:37:20;;;;;;;9.93;2.38;;;33.10;42.20;;;;;;4882524;28;86911;-71
2022/07/19 05:39:46;;;;;;;15.48;2.80;;;33.40;41.90;;;;;;4880597;28;88016;-73
2022/07/19 05:42:11;;;;;;;5.80;2.25;;;32.60;42.90;;;;;;4882006;28;88469;-73
2022/07/19 05:44:37;;;;;;;10.65;2.60;;;31.70;43.80;;;;;;4882256;28;87090;-70
2022/07/19 05:47:03;;;;;;;5.43;2.05;;;30.50;45.60;;;;;;4880984;28;87184;-74
2022/07/19 05:49:29;;;;;;;7.53;2.10;;;29.90;46.20;;;;;;4893071;28;87716;-73
2022/07/19 05:51:54;;;;;;;8.85;2.20;;;30.40;45.20;;;;;;4873049;28;87985;-72
2022/07/19 05:54:20;;;;;;;7.93;2.40;;;31.10;45.20;;;;;;4863815;28;86981;-72
2022/07/19 05:56:46;;;;;;;7.60;2.33;;;31.30;44.30;;;;;;4865072;28;86313;-72
2022/07/19 05:59:11;;;;;;;5.20;2.38;;;30.70;44.80;;;;;;4881130;28;87167;-73
2022/07/19 06:01:37;;;;;;;8.82;1.92;;;31.90;44.00;;;;;;4879694;28;87097;-73
2022/07/19 06:04:03;;;;;;;7.47;2.42;;;31.50;43.80;;;;;;4872423;28;87934;-72
2022/07/19 06:06:31;;;;;;;8.88;2.53;;;32.10;43.00;;;;;;4870806;28;87357;-72
2022/07/19 06:08:58;;;;;;;8.93;2.50;;;31.80;43.40;;;;;;4864334;28;87210;-71
2022/07/19 06:11:24;;;;;;;7.22;2.25;;;32.20;43.80;;;;;;4878670;28;86995;-73
2022/07/19 06:13:50;;;;;;;9.57;1.85;;;33.60;40.90;;;;;;4879289;28;88320;-74
2022/07/19 06:16:16;;;;;;;9.10;2.33;;;34.00;41.00;;;;;;4888417;28;87342;-73
2022/07/19 06:18:42;;;;;;;5.47;1.98;;;34.80;38.50;;;;;;4898459;28;87173;-70
2022/07/19 06:21:10;;;;;;;7.82;2.55;;;34.70;39.30;;;;;;4888095;28;87318;-73
2022/07/19 06:23:37;;;;;;;;;;;34.30;40.80;;;;;;4880562;28;86931;-70
2022/07/19 06:26:04;;;;;;;5.18;1.90;;;34.30;40.20;;;;;;4883869;28;87124;-69
2022/07/19 06:28:30;;;;;;;5.60;2.17;;;34.20;41.00;;;;;;4868667;28;88675;-70
2022/07/19 06:30:55;;;;;;;13.98;2.85;;;36.00;38.40;;;;;;4876882;28;88824;-74
2022/07/19 06:33:22;;;;;;;10.13;2.47;;;36.30;36.60;;;;;;4879173;28;87043;-70
2022/07/19 06:35:48;;;;;;;47.20;5.68;;;36.70;35.90;;;;;;4881163;28;87139;-72
2022/07/19 06:38:14;;;;;;;10.52;2.20;;;37.70;34.90;;;;;;4881260;28;87256;-73
2022/07/19 06:40:40;;;;;;;4.43;2.22;;;37.90;34.60;;;;;;4869132;28;87468;-72
2022/07/19 06:43:06;;;;;;;5.57;2.40;;;37.10;36.40;;;;;;4884524;28;87351;-72
2022/07/19 06:45:31;;;;;;;5.63;1.98;;;39.40;34.40;;;;;;4883032;28;86287;-73
2022/07/19 06:47:57;;;;;;;7.40;2.83;;;41.30;32.10;;;;;;4887567;28;88159;-71
2022/07/19 06:50:23;;;;;;;3.53;2.50;;;42.40;33.40;;;;;;4881654;28;87909;-70
2022/07/19 06:52:49;;;;;;;7.53;3.40;;;43.90;33.80;;;;;;4864740;28;88024;-75
2022/07/19 06:55:14;;;;;;;5.68;2.70;;;44.60;33.70;;;;;;4877601;28;87151;-77
2022/07/19 06:57:40;;;;;;;6.43;3.13;;;45.50;33.30;;;;;;4881229;28;87506;-72
2022/07/19 07:00:09;;;;;;;4.93;3.25;;;46.10;32.60;;;;;;4881001;28;87898;-71
2022/07/19 07:02:36;;;;;;;6.07;3.28;;;45.20;32.80;;;;;;4880495;28;87124;-72
2022/07/19 07:05:02;;;;;;;4.18;2.78;;;45.50;33.00;;;;;;4880038;28;86980;-79
2022/07/19 07:07:29;;;;;;;4.57;3.35;;;45.60;32.50;;;;;;4880364;28;88233;-73
2022/07/19 07:09:55;;;;;;;4.78;3.30;;;45.90;33.00;;;;;;4884649;28;87733;-75
2022/07/19 07:12:21;;;;;;;3.72;3.20;;;45.40;32.50;;;;;;4885359;28;86978;-75
2022/07/19 07:14:46;;;;;;;5.10;4.43;;;45.80;32.00;;;;;;4880395;28;87106;-78
2022/07/19 07:17:12;;;;;;;6.65;3.08;;;46.00;31.60;;;;;;4879947;28;87988;-73
2022/07/19 07:19:37;;;;;;;5.57;3.65;;;46.40;31.50;;;;;;4880134;28;88214;-75
2022/07/19 07:22:03;;;;;;;5.80;3.50;;;46.70;31.00;;;;;;4879799;28;87249;-76
2022/07/19 07:24:29;;;;;;;5.80;4.03;;;47.70;31.10;;;;;;4880812;28;86926;-72
2022/07/19 07:26:55;;;;;;;8.80;3.25;;;47.70;30.70;;;;;;4880173;28;86873;-78
2022/07/19 07:29:21;;;;;;;8.43;4.38;;;47.90;30.90;;;;;;4877396;28;87201;-74
2022/07/19 07:31:46;;;;;;;8.90;4.22;;;46.90;30.90;;;;;;4880980;28;86965;-73
2022/07/19 07:34:12;;;;;;;10.68;5.07;;;47.20;30.60;;;;;;4881160;28;86185;-72
2022/07/19 07:36:38;;;;;;;5.75;4.60;;;46.90;31.60;;;;;;4880166;28;86951;-76
2022/07/19 07:39:04;;;;;;;8.32;3.75;;;46.20;31.50;;;;;;4879708;28;87485;-74
2022/07/19 07:41:29;;;;;;;5.50;4.05;;;46.20;31.80;;;;;;4876110;28;88475;-74
2022/07/19 07:43:55;;;;;;;5.70;4.20;;;47.10;31.10;;;;;;4861561;29;87042;-75
2022/07/19 07:46:21;;;;;;;7.38;4.60;;;48.10;30.30;;;;;;4861497;29;87167;-73
2022/07/19 07:48:47;;;;;;;5.53;5.03;;;49.00;30.00;;;;;;4862026;28;87465;-75
2022/07/19 07:51:12;;;;;;;4.78;4.15;;;48.80;30.20;;;;;;4880068;28;87388;-75
2022/07/19 07:53:38;;;;;;;8.45;5.30;;;48.80;30.30;;;;;;4879319;28;86982;-72
2022/07/19 07:56:04;;;;;;;8.25;5.68;;;48.80;30.00;;;;;;4862233;29;87193;-71
2022/07/19 07:58:30;;;;;;;11.25;4.50;;;50.00;29.30;;;;;;4861761;29;87263;-75
2022/07/19 08:00:56;;;;;;;8.13;5.50;;;50.70;29.10;;;;;;4882995;28;86930;-75
2022/07/19 08:03:21;;;;;;;7.00;6.38;;;51.40;28.70;;;;;;4872868;28;87125;-77
2022/07/19 08:05:48;;;;;;;8.10;5.45;;;51.90;28.60;;;;;;4873598;28;88489;-73
2022/07/19 08:08:14;;;;;;;8.65;6.28;;;52.20;27.70;;;;;;4877917;28;88634;-76
2022/07/19 08:10:40;;;;;;;7.95;7.25;;;52.20;28.30;;;;;;4888286;28;86987;-71
2022/07/19 08:13:06;;;;;;;11.85;7.35;;;53.30;28.30;;;;;;4899686;28;86935;-73
2022/07/19 08:15:31;;;;;;;7.85;7.05;;;52.50;28.60;;;;;;4898740;28;87853;-75
2022/07/19 08:17:57;;;;;;;7.75;6.90;;;52.50;28.90;;;;;;4899866;28;87728;-71
2022/07/19 08:20:23;;;;;;;6.57;5.97;;;51.90;28.40;;;;;;4872530;28;86941;-72
2022/07/19 08:22:49;;;;;;;8.02;7.22;;;51.70;28.00;;;;;;4879782;28;86275;-76
2022/07/19 08:25:16;;;;;;;13.48;7.28;;;51.50;28.70;;;;;;4866961;28;87168;-77
2022/07/19 08:27:43;;;;;;;11.43;7.35;;;51.80;28.10;;;;;;4861081;28;87430;-77
2022/07/19 08:30:09;;;;;;;8.35;6.57;;;51.60;28.20;;;;;;4875736;28;87835;-79
2022/07/19 08:32:36;;;;;;;6.32;5.72;;;51.80;28.10;;;;;;4879792;28;87018;-71
2022/07/19 08:35:03;;;;;;;7.75;6.95;;;52.80;28.00;;;;;;4879723;28;87014;-74
2022/07/19 08:37:28;;;;;;;7.97;7.13;;;51.20;28.90;;;;;;4877535;28;88857;-72
2022/07/19 08:39:54;;;;;;;7.43;5.85;;;51.20;29.10;;;;;;4875145;28;87340;-72
2022/07/19 08:42:20;;;;;;;10.10;7.28;;;51.40;28.80;;;;;;4880394;28;87196;-74
2022/07/19 08:44:50;;;;;;;10.48;7.93;;;51.70;28.70;;;;;;4879423;28;88063;-72
2022/07/19 08:47:18;;;;;;;9.63;8.35;;;52.30;28.80;;;;;;4879612;28;87220;-74
2022/07/19 08:49:44;;;;;;;9.02;8.15;;;52.20;28.70;;;;;;4878621;28;86987;-76
2022/07/19 08:52:11;;;;;;;68.00;9.95;;;52.80;28.30;;;;;;4861964;28;87527;-73
2022/07/19 08:54:38;;;;;;;8.73;7.50;;;54.10;27.60;;;;;;4860641;28;89096;-73
2022/07/19 08:59:48;;;;;;;9.50;7.78;;;54.70;27.30;;;;;;4880037;28;87027;-71
2022/07/19 09:02:14;;;;;;;12.02;7.78;;;55.90;27.20;;;;;;4878638;28;87152;-75
2022/07/19 09:04:40;;;;;;;10.68;9.73;;;55.20;27.70;;;;;;4869101;28;88254;-77
2022/07/19 09:07:06;;;;;;;10.55;8.98;;;53.50;28.10;;;;;;4879547;28;87518;-77
2022/07/19 09:09:34;;;;;;;10.52;9.52;;;53.20;28.00;;;;;;4880384;28;87032;-77
2022/07/19 09:12:01;;;;;;;10.07;9.23;;;54.00;27.50;;;;;;4889654;28;86345;-73
2022/07/19 09:14:35;;;;;;;10.43;9.40;;;52.20;28.70;;;;;;4879267;28;87213;-74
2022/07/19 09:17:13;;;;;;;11.57;10.52;;;52.70;28.40;;;;;;4876595;28;87598;-75
2022/07/19 09:19:42;;;;;;;13.02;9.63;;;52.10;28.50;;;;;;4878375;28;88479;-76
2022/07/19 09:22:12;;;;;;;8.77;7.97;;;52.70;28.00;;;;;;4878296;28;87390;-77
2022/07/19 09:24:47;;;;;;;9.88;9.00;;;53.40;26.60;;;;;;4874836;28;87153;-75
2022/07/19 09:27:18;;;;;;;12.48;10.18;;;53.90;26.90;;;;;;4860453;29;87126;-75
2022/07/19 09:29:46;;;;;;;12.38;11.27;;;54.60;27.30;;;;;;4865071;28;86995;-75
2022/07/19 09:32:13;;;;;;;;;;;54.80;27.10;;;;;;4880681;28;87696;-75
2022/07/19 09:34:51;;;;;;;10.57;8.98;;;55.00;26.80;;;;;;4878001;28;88440;-76
2022/07/19 09:37:23;;;;;;;13.70;12.50;;;55.50;27.20;;;;;;4884864;28;86892;-74
2022/07/19 09:39:57;;;;;;;12.43;10.82;;;56.90;26.80;;;;;;4861374;29;87097;-80
2022/07/19 09:42:34;;;;;;;13.07;11.63;;;57.40;26.20;;;;;;4875526;28;86996;-82
2022/07/19 09:45:14;;;;;;;12.65;11.45;;;56.90;26.40;;;;;;4858607;29;88576;-75
2022/07/19 09:47:45;;;;;;;15.25;13.77;;;56.30;26.50;;;;;;4860662;28;88311;-74
2022/07/19 09:50:14;;;;;;;12.32;10.95;;;55.20;26.60;;;;;;4877948;28;87009;-73
2022/07/19 09:52:40;;;;;;;14.00;12.32;;;55.70;26.10;;;;;;4880945;28;86601;-75
2022/07/19 09:55:09;;;;;;;12.23;11.13;;;56.00;26.10;;;;;;4892597;28;87619;-74
2022/07/19 09:57:39;;;;;;;10.85;9.95;;;55.60;26.20;;;;;;4885294;28;87074;-76
2022/07/19 10:00:06;;;;;;;10.77;9.75;;;55.60;26.30;;;;;;4889229;28;87289;-73
2022/07/19 10:02:34;;;;;;;;;;;56.00;25.80;;;;;;4881795;28;86202;-73
2022/07/19 10:05:05;;;;;;;10.82;9.77;;;55.30;26.10;;;;;;4895128;28;89484;-72
2022/07/19 10:07:34;;;;;;;9.02;8.18;;;55.00;27.00;;;;;;4896827;28;88839;-76
2022/07/19 10:10:04;;;;;;;11.25;10.25;;;55.90;26.00;;;;;;4887684;28;87917;-75
2022/07/19 10:12:31;;;;;;;10.68;9.88;;;54.00;26.30;;;;;;4896524;28;86972;-74
2022/07/19 10:14:57;;;;;;;10.73;9.63;;;53.00;27.00;;;;;;4885987;28;87288;-78
2022/07/19 10:17:37;;;;;;;12.23;10.88;;;52.50;26.60;;;;;;4880781;28;87493;-75
2022/07/19 10:20:06;;;;;;;11.02;8.65;;;47.80;28.30;;;;;;4879326;28;86709;-74
2022/07/19 10:22:32;;;;;;;8.50;7.53;;;45.20;31.40;;;;;;4880891;28;87363;-72
2022/07/19 10:25:00;;;;;;;8.20;6.40;;;42.30;32.80;;;;;;4882294;28;87276;-74
2022/07/19 10:27:25;;;;;;;6.45;5.65;;;41.10;33.90;;;;;;4884840;28;88017;-73
2022/07/19 10:29:52;;;;;;;5.95;4.32;;;39.80;35.30;;;;;;4883527;28;87091;-71
2022/07/19 10:32:26;;;;;;;6.13;4.13;;;39.30;35.50;;;;;;4901910;28;86915;-73
2022/07/19 10:35:12;;;;;;;;;;;38.00;36.30;;;;;;4901685;28;87905;-73
2022/07/19 10:37:40;;;;;;;8.25;3.45;;;37.60;38.40;;;;;;4900459;28;86894;-73
2022/07/19 10:40:06;;;;;;;5.57;2.90;;;37.80;39.10;;;;;;4886070;28;87016;-73
2022/07/19 10:42:32;;;;;;;5.53;2.50;;;36.60;38.80;;;;;;4882918;28;86906;-73
2022/07/19 10:44:59;;;;;;;5.40;3.30;;;35.50;41.50;;;;;;4883070;28;87264;-74
2022/07/19 10:47:37;;;;;;;5.65;2.55;;;35.40;40.60;;;;;;4881589;28;88245;-71
2022/07/19 10:50:06;;;;;;;6.47;2.53;;;35.50;40.90;;;;;;4883214;28;87015;-74
2022/07/19 10:52:33;;;;;;;4.78;2.85;;;35.30;40.70;;;;;;4883382;28;86392;-72
2022/07/19 10:55:28;;;;;;;4.20;2.28;;;35.20;40.20;;;;;;4885653;28;87639;-71
2022/07/19 10:58:06;;;;;;;5.13;2.33;;;35.00;43.00;;;;;;4867453;28;88354;-70
2022/07/19 11:00:52;;;;;;;5.00;2.20;;;35.00;41.10;;;;;;4882178;28;88159;-71
2022/07/19 11:03:21;;;;;;;3.42;2.33;;;34.10;41.70;;;;;;4881672;28;86863;-70
2022/07/19 11:05:49;;;;;;;5.00;1.88;;;34.00;42.60;;;;;;4873188;28;86900;-70
2022/07/19 11:08:15;;;;;;;4.47;2.53;;;34.00;43.20;;;;;;4882442;28;87436;-78
2022/07/19 11:10:41;;;;;;;5.22;2.33;;;34.00;42.60;;;;;;4879971;28;86949;-74
2022/07/19 11:13:07;;;;;;;7.10;2.58;;;33.50;44.10;;;;;;4879545;28;86950;-74
2022/07/19 11:15:33;;;;;;;3.67;2.03;;;33.50;43.40;;;;;;4882067;28;87310;-72
2022/07/19 11:18:03;;;;;;;2.55;2.05;;;33.40;42.90;;;;;;4876302;28;86146;-71
2022/07/19 11:20:30;;;;;;;4.25;1.90;;;33.40;45.40;;;;;;4868240;28;87136;-73
2022/07/19 11:22:57;;;;;;;2.45;1.55;;;33.50;41.90;;;;;;4883017;28;87300;-71
2022/07/19 11:25:35;;;;;;;5.10;2.20;;;33.40;40.40;;;;;;4880972;28;88702;-69
2022/07/19 11:28:02;;;;;;;4.95;1.90;;;33.20;41.10;;;;;;4882023;28;87864;-72
2022/07/19 11:30:32;;;;;;;7.68;2.30;;;33.00;44.40;;;;;;4894824;28;86998;-73
2022/07/19 11:33:05;;;;;;;2.88;1.77;;;33.20;45.50;;;;;;4863924;29;87049;-77
2022/07/19 11:35:32;;;;;;;5.35;1.63;;;33.80;43.20;;;;;;4867717;28;86984;-71
2022/07/19 11:37:59;;;;;;;4.68;1.90;;;33.50;42.20;;;;;;4881400;28;87399;-75
2022/07/19 11:40:32;;;;;;;3.10;1.70;;;33.60;43.50;;;;;;4888467;28;86972;-75
2022/07/19 11:42:58;;;;;;;4.40;1.63;;;33.60;42.30;;;;;;4864184;29;86301;-72
2022/07/19 11:45:26;;;;;;;3.75;1.48;;;33.70;43.30;;;;;;4863484;29;88163;-74
2022/07/19 11:47:54;;;;;;;5.03;2.00;;;33.90;42.90;;;;;;4880264;28;87236;-73
2022/07/19 11:50:23;;;;;;;3.20;1.63;;;33.90;42.80;;;;;;4881820;28;87978;-72
2022/07/19 11:52:54;;;;;;;4.20;1.98;;;34.10;42.90;;;;;;4881895;28;87101;-72
2022/07/19 11:55:28;;;;;;;5.22;2.17;;;33.90;42.60;;;;;;4882931;28;87827;-76
2022/07/19 11:57:56;;;;;;;5.63;2.00;;;33.90;41.60;;;;;;4882675;28;87379;-72
2022/07/19 12:00:22;;;;;;;5.22;1.63;;;33.70;45.20;;;;;;4881547;28;87148;-71
2022/07/19 12:02:58;;;;;;;2.75;1.65;;;33.50;44.40;;;;;;4882254;28;87200;-73
2022/07/19 12:05:27;;;;;;;2.53;1.90;;;33.60;45.50;;;;;;4882451;28;87254;-74
2022/07/19 12:07:56;;;;;;;5.15;2.13;;;33.30;45.50;;;;;;4871343;28;87621;-71
2022/07/19 12:10:44;;;;;;;4.38;2.08;;;33.30;45.60;;;;;;4889537;28;87030;-72
2022/07/19 12:13:13;;;;;;;2.63;2.00;;;33.50;44.50;;;;;;4864948;28;87119;-73
2022/07/19 12:15:54;;;;;;;3.55;2.00;;;33.50;46.00;;;;;;4862637;29;88609;-71
2022/07/19 12:18:22;;;;;;;2.80;1.67;;;33.40;46.10;;;;;;4873987;28;88727;-71
2022/07/19 12:21:25;;;;;;;3.63;1.75;;;33.30;47.60;;;;;;4882035;28;87069;-72
2022/07/19 12:24:15;;;;;;;3.72;2.08;;;33.60;43.40;;;;;;4842285;29;86963;-71
2022/07/19 12:26:43;;;;;;;2.50;1.98;;;33.50;45.60;;;;;;4863169;29;87125;-71
2022/07/19 12:29:42;;;;;;;4.05;2.10;;;33.40;42.40;;;;;;4878908;28;86933;-71
2022/07/19 12:32:12;;;;;;;3.05;1.58;;;33.50;43.00;;;;;;4871353;28;87006;-72
2022/07/19 12:35:01;;;;;;;4.80;1.70;;;33.50;43.30;;;;;;4882986;28;86791;-72
2022/07/19 12:37:37;;;;;;;6.00;1.73;;;33.30;44.00;;;;;;4881164;28;87701;-73
2022/07/19 12:40:11;;;;;;;2.50;1.50;;;33.30;47.20;;;;;;4882187;28;87004;-74
2022/07/19 12:42:59;;;;;;;4.88;1.92;;;33.30;47.10;;;;;;4882538;28;87807;-71
2022/07/19 12:45:27;;;;;;;4.72;1.92;;;33.30;42.40;;;;;;4882519;28;86948;-71
2022/07/19 12:47:53;;;;;;;4.00;1.85;;;33.30;44.20;;;;;;4871349;28;87203;-71
2022/07/19 12:50:25;;;;;;;2.47;1.60;;;33.40;45.60;;;;;;4882244;28;88211;-71
2022/07/19 12:52:53;;;;;;;4.65;1.90;;;33.40;46.30;;;;;;4879839;28;87037;-71
2022/07/19 12:55:20;;;;;;;7.63;2.05;;;33.40;43.10;;;;;;4880850;28;87086;-72
2022/07/19 12:57:50;;;;;;;3.10;2.05;;;33.40;42.80;;;;;;4890271;28;87698;-71
2022/07/19 13:00:18;;;;;;;4.85;1.92;;;33.40;45.70;;;;;;4872575;28;86983;-71
2022/07/19 13:02:46;;;;;;;3.15;1.83;;;33.30;43.80;;;;;;4880848;28;86954;-74
2022/07/19 13:05:12;;;;;;;2.53;1.67;;;33.40;43.90;;;;;;4881892;28;87083;-71
2022/07/19 13:07:37;;;;;;;3.63;1.90;;;33.40;44.10;;;;;;4881255;28;88185;-72
2022/07/19 13:10:04;;;;;;;4.70;1.80;;;33.40;43.80;;;;;;4885778;28;87810;-71
2022/07/19 13:12:29;;;;;;;2.92;1.75;;;33.20;45.90;;;;;;4874639;28;87003;-73
2022/07/19 13:14:55;;;;;;;4.72;1.60;;;33.10;45.50;;;;;;4862586;29;87097;-73
2022/07/19 13:17:21;;;;;;;6.50;1.60;;;33.20;47.00;;;;;;4863872;28;87062;-71
2022/07/19 13:19:47;;;;;;;4.80;1.63;;;33.30;47.70;;;;;;4881253;28;87281;-74
2022/07/19 13:22:13;;;;;;;4.43;2.42;;;33.40;47.10;;;;;;4881571;28;87001;-74
2022/07/19 13:24:39;;;;;;;2.40;1.48;;;33.20;46.90;;;;;;4881530;28;86254;-74
2022/07/19 13:27:04;;;;;;;6.82;1.80;;;33.00;48.20;;;;;;4881107;28;87122;-72
2022/07/19 13:29:30;;;;;;;3.80;1.92;;;33.00;46.80;;;;;;4880588;28;86965;-71
2022/07/19 13:31:58;;;;;;;5.28;1.80;;;33.00;47.00;;;;;;4881025;28;87828;-72
2022/07/19 13:34:24;;;;;;;4.20;1.75;;;33.00;48.30;;;;;;4879636;28;87012;-74
2022/07/19 13:36:50;;;;;;;6.05;2.03;;;33.20;45.50;;;;;;4880921;28;88148;-71
2022/07/19 13:39:16;;;;;;;4.30;1.77;;;33.20;45.70;;;;;;4880110;28;87010;-72
2022/07/19 13:41:42;;;;;;;4.72;2.00;;;33.20;45.40;;;;;;4880996;28;86588;-72
2022/07/19 13:44:08;;;;;;;3.65;1.63;;;33.30;47.70;;;;;;4881300;28;87118;-70
2022/07/19 13:46:34;;;;;;;3.50;1.50;;;33.20;43.70;;;;;;4874196;28;86879;-71
2022/07/19 13:49:00;;;;;;;2.88;1.50;;;33.20;40.00;;;;;;4875934;28;86989;-71
2022/07/19 13:51:26;;;;;;;5.25;1.90;;;33.20;40.80;;;;;;4884414;28;87028;-72
2022/07/19 13:53:53;;;;;;;3.00;1.50;;;33.20;41.20;;;;;;4884811;28;86902;-71
2022/07/19 13:56:20;;;;;;;2.55;1.23;;;33.30;41.50;;;;;;4883446;28;88320;-71
2022/07/19 13:58:46;;;;;;;3.65;2.05;;;33.30;39.40;;;;;;4883523;28;87812;-71
2022/07/19 14:01:12;;;;;;;3.17;1.30;;;33.30;38.50;;;;;;4884792;28;86907;-71
2022/07/19 14:03:38;;;;;;;3.63;1.90;;;33.30;40.50;;;;;;4867274;28;87074;-75
2022/07/19 14:06:04;;;;;;;2.67;1.35;;;33.40;39.70;;;;;;4884494;28;87199;-75
2022/07/19 14:08:30;;;;;;;3.35;1.77;;;33.40;39.60;;;;;;4883520;28;87840;-74
2022/07/19 14:10:55;;;;;;;7.97;1.90;;;33.40;38.10;;;;;;4878234;28;86842;-72
2022/07/19 14:13:21;;;;;;;2.55;1.50;;;33.30;40.30;;;;;;4865289;29;86693;-74
2022/07/19 14:15:47;;;;;;;4.45;1.85;;;33.30;39.80;;;;;;4865159;29;86732;-72
2022/07/19 14:18:12;;;;;;;5.15;1.60;;;33.30;40.60;;;;;;4871850;28;86925;-70
2022/07/19 14:20:42;;;;;;;2.80;1.60;;;33.20;39.40;;;;;;4883759;28;87986;-71
2022/07/19 14:23:12;;;;;;;4.13;1.35;;;33.40;38.30;;;;;;4884134;28;86973;-70
2022/07/19 14:25:38;;;;;;;5.80;1.77;;;33.40;37.70;;;;;;4884128;28;87067;-71
2022/07/19 14:28:04;;;;;;;2.78;1.45;;;33.40;36.80;;;;;;4880454;28;87550;-75
2022/07/19 14:30:30;;;;;;;4.70;1.80;;;33.40;38.50;;;;;;4865269;29;87159;-71
2022/07/19 14:32:56;;;;;;;2.63;1.63;;;33.40;39.50;;;;;;4865964;29;86975;-71
2022/07/19 14:35:22;;;;;;;2.95;1.58;;;33.40;40.10;;;;;;4866817;28;87250;-75
2022/07/19 14:37:48;;;;;;;3.47;1.30;;;33.50;39.30;;;;;;4885011;28;86917;-71
2022/07/19 14:40:14;;;;;;;3.70;1.48;;;33.60;37.80;;;;;;4884799;28;86921;-71
2022/07/19 14:42:40;;;;;;;3.70;1.60;;;33.70;37.80;;;;;;4884383;28;87061;-73
2022/07/19 14:45:07;;;;;;;2.53;1.30;;;33.40;37.90;;;;;;4883625;28;88233;-73
2022/07/19 14:47:34;;;;;;;4.72;1.70;;;33.40;38.00;;;;;;4882827;28;87129;-70
2022/07/19 14:50:00;;;;;;;2.88;1.73;;;33.30;37.40;;;;;;4867268;28;87013;-72
2022/07/19 14:52:26;;;;;;;3.03;1.33;;;33.30;37.60;;;;;;4865108;29;87122;-71
2022/07/19 14:54:51;;;;;;;3.70;1.48;;;33.30;37.30;;;;;;4864795;29;87309;-73
2022/07/19 14:57:18;;;;;;;4.70;1.38;;;33.40;36.20;;;;;;4864548;29;87651;-72
2022/07/19 14:59:43;;;;;;;4.28;1.25;;;33.40;37.30;;;;;;4880687;28;86887;-70
2022/07/19 15:02:09;;;;;;;2.65;1.40;;;33.30;38.50;;;;;;4869270;28;86402;-71
2022/07/19 15:04:36;;;;;;;2.70;1.80;;;33.30;37.50;;;;;;4864400;29;86920;-71
2022/07/19 15:07:02;;;;;;;5.78;2.03;;;33.40;37.40;;;;;;4864801;29;87373;-73
2022/07/19 15:09:28;;;;;;;4.68;1.42;;;33.30;38.00;;;;;;4878328;28;87984;-70
2022/07/19 15:11:54;;;;;;;4.72;1.92;;;33.30;37.10;;;;;;4902203;28;87136;-72
2022/07/19 15:14:20;;;;;;;4.82;1.63;;;33.40;37.50;;;;;;4889469;28;86756;-71
2022/07/19 15:16:46;;;;;;;8.07;1.75;;;33.40;34.80;;;;;;4883106;28;86997;-70
2022/07/19 15:19:12;;;;;;;7.00;2.22;;;33.50;36.00;;;;;;4883301;28;87016;-71
2022/07/19 15:21:38;;;;;;;2.83;1.48;;;33.50;36.80;;;;;;4882944;28;87392;-75
2022/07/19 15:24:04;;;;;;;5.55;1.92;;;33.50;36.60;;;;;;4883653;28;86949;-73
2022/07/19 15:26:30;;;;;;;5.20;1.52;;;33.40;37.60;;;;;;4881775;28;87914;-71
2022/07/19 15:28:56;;;;;;;3.92;1.70;;;33.50;38.10;;;;;;4881224;28;86969;-74
2022/07/19 15:31:23;;;;;;;3.97;1.83;;;33.30;37.70;;;;;;4883372;28;87498;-71
2022/07/19 15:33:48;;;;;;;4.63;1.95;;;33.30;38.90;;;;;;4882037;28;89010;-74
2022/07/19 15:36:14;;;;;;;3.83;1.60;;;33.30;36.90;;;;;;4883092;28;89462;-71